createdAt,value
2022-08-03T00:00:51.094Z,951.1
2022-08-03T00:01:52.751Z,951.1
2022-08-03T00:02:54.791Z,951.1
2022-08-03T00:03:56.607Z,951.1
2022-08-03T00:04:58.272Z,951.1
2022-08-03T00:06:05.467Z,951.1
2022-08-03T00:07:07.320Z,951
2022-08-03T00:08:09.560Z,951.1
2022-08-03T00:09:11.303Z,951.1
2022-08-03T00:10:13.047Z,951.1
2022-08-03T00:11:14.690Z,951.1
2022-08-03T00:12:17.371Z,951.1
2022-08-03T00:13:19.757Z,951.1
2022-08-03T00:14:21.480Z,951.1
2022-08-03T00:15:23.256Z,951.1
2022-08-03T00:16:24.925Z,951.1
2022-08-03T00:17:26.482Z,951.1
2022-08-03T00:18:28.116Z,951.1
2022-08-03T00:19:29.936Z,951.1
2022-08-03T00:20:31.539Z,951.1
2022-08-03T00:21:33.299Z,951.1
2022-08-03T00:22:34.942Z,951.1
2022-08-03T00:23:53.177Z,951.1
2022-08-03T00:24:54.845Z,951.1
2022-08-03T00:25:56.494Z,951
2022-08-03T00:26:58.127Z,951.1
2022-08-03T00:27:59.689Z,951.1
2022-08-03T00:29:01.401Z,951.1
2022-08-03T00:30:03.008Z,951.1
2022-08-03T00:31:04.731Z,951.1
2022-08-03T00:32:12.383Z,951.1
2022-08-03T00:33:15.388Z,951.1
2022-08-03T00:34:57.490Z,951.2
2022-08-03T00:36:00.858Z,951.1
2022-08-03T00:37:02.408Z,951.1
2022-08-03T00:38:04.103Z,951.1
2022-08-03T00:39:05.792Z,951.1
2022-08-03T00:40:07.398Z,951.1
2022-08-03T00:41:08.941Z,951
2022-08-03T00:42:10.512Z,951.1
2022-08-03T00:43:12.070Z,951.1
2022-08-03T00:44:13.701Z,951.1
2022-08-03T00:45:15.248Z,951
2022-08-03T00:46:22.339Z,951.1
2022-08-03T00:47:24.222Z,951.1
2022-08-03T00:48:34.090Z,951.1
2022-08-03T00:49:36.071Z,951.1
2022-08-03T00:50:37.745Z,951.1
2022-08-03T00:51:39.322Z,951.1
2022-08-03T00:52:40.941Z,951.1
2022-08-03T00:53:42.485Z,951.1
2022-08-03T00:54:44.186Z,951.1
2022-08-03T00:55:45.757Z,951.1
2022-08-03T00:57:00.698Z,951.1
2022-08-03T00:58:02.278Z,951
2022-08-03T00:59:03.855Z,951
2022-08-03T01:00:05.598Z,951.1
2022-08-03T01:01:10.570Z,951.1
2022-08-03T01:02:12.210Z,951.1
2022-08-03T01:03:13.750Z,951.1
2022-08-03T01:04:15.379Z,951.1
2022-08-03T01:05:16.899Z,951.1
2022-08-03T01:06:18.683Z,951
2022-08-03T01:07:20.356Z,951
2022-08-03T01:08:21.934Z,951
2022-08-03T01:09:23.475Z,951
2022-08-03T01:10:25.043Z,950.9
2022-08-03T01:11:26.691Z,951
2022-08-03T01:12:28.303Z,950.9
2022-08-03T01:14:20.093Z,951
2022-08-03T01:15:22.457Z,951
2022-08-03T01:16:37.453Z,951
2022-08-03T01:17:39.011Z,951
2022-08-03T01:18:40.546Z,950.9
2022-08-03T01:19:42.179Z,950.9
2022-08-03T01:20:43.792Z,950.9
2022-08-03T01:21:47.126Z,950.9
2022-08-03T01:22:48.858Z,951
2022-08-03T01:23:50.628Z,950.9
2022-08-03T01:24:52.270Z,951
2022-08-03T01:25:54.936Z,950.9
2022-08-03T01:26:56.670Z,950.9
2022-08-03T01:27:58.211Z,950.9
2022-08-03T01:28:59.894Z,950.9
2022-08-03T01:30:01.470Z,950.9
2022-08-03T01:31:03.022Z,950.9
2022-08-03T01:33:03.845Z,950.9
2022-08-03T01:34:14.943Z,950.9
2022-08-03T01:35:16.690Z,950.9
2022-08-03T01:36:21.529Z,950.9
2022-08-03T01:37:23.053Z,950.9
2022-08-03T01:38:24.583Z,950.9
2022-08-03T01:39:26.179Z,950.9
2022-08-03T01:40:27.807Z,951
2022-08-03T01:41:29.658Z,951
2022-08-03T01:42:31.248Z,950.9
2022-08-03T01:44:31.298Z,951
2022-08-03T01:45:34.678Z,951
2022-08-03T01:46:36.215Z,951
2022-08-03T01:47:37.751Z,951
2022-08-03T01:48:39.293Z,950.9
2022-08-03T01:49:41.202Z,951
2022-08-03T01:50:43.212Z,950.9
2022-08-03T01:52:05.748Z,951
2022-08-03T01:53:07.484Z,951
2022-08-03T01:54:09.154Z,950.9
2022-08-03T01:55:10.774Z,951
2022-08-03T01:56:12.454Z,951
2022-08-03T01:57:14.096Z,951
2022-08-03T01:58:15.672Z,951
2022-08-03T01:59:17.250Z,951
2022-08-03T02:00:20.061Z,951
2022-08-03T02:01:21.994Z,951
2022-08-03T02:02:35.125Z,951
2022-08-03T02:03:37.435Z,951
2022-08-03T02:04:38.971Z,951
2022-08-03T02:05:40.564Z,951
2022-08-03T02:07:03.709Z,951
2022-08-03T02:08:05.428Z,951
2022-08-03T02:09:06.968Z,951
2022-08-03T02:10:08.521Z,951
2022-08-03T02:11:10.059Z,951
2022-08-03T02:12:11.716Z,951
2022-08-03T02:13:13.272Z,951
2022-08-03T02:14:14.842Z,951
2022-08-03T02:15:16.468Z,951
2022-08-03T02:16:18.110Z,950.9
2022-08-03T02:17:40.527Z,950.9
2022-08-03T02:18:42.134Z,950.9
2022-08-03T02:19:43.675Z,950.9
2022-08-03T02:20:45.324Z,950.9
2022-08-03T02:22:02.160Z,950.9
2022-08-03T02:23:03.830Z,951
2022-08-03T02:24:05.423Z,950.9
2022-08-03T02:25:06.962Z,950.9
2022-08-03T02:26:08.558Z,950.9
2022-08-03T02:27:10.206Z,950.9
2022-08-03T02:28:12.163Z,950.9
2022-08-03T02:29:13.744Z,950.9
2022-08-03T02:30:15.282Z,950.9
2022-08-03T02:31:16.831Z,950.9
2022-08-03T02:32:19.720Z,950.9
2022-08-03T02:33:24.376Z,950.9
2022-08-03T02:34:26.020Z,950.9
2022-08-03T02:35:27.560Z,950.9
2022-08-03T02:36:31.851Z,950.9
2022-08-03T02:37:33.414Z,950.9
2022-08-03T02:38:35.158Z,950.9
2022-08-03T02:39:36.772Z,950.9
2022-08-03T02:40:38.306Z,950.9
2022-08-03T02:41:39.853Z,950.9
2022-08-03T02:42:41.542Z,950.9
2022-08-03T02:44:07.746Z,951
2022-08-03T02:45:12.360Z,950.9
2022-08-03T02:46:15.226Z,950.9
2022-08-03T02:47:16.795Z,950.9
2022-08-03T02:48:18.518Z,950.9
2022-08-03T02:49:52.805Z,950.9
2022-08-03T02:50:54.671Z,950.9
2022-08-03T02:51:56.283Z,950.9
2022-08-03T02:52:57.931Z,950.9
2022-08-03T02:53:59.720Z,950.9
2022-08-03T02:55:01.379Z,950.9
2022-08-03T02:56:02.964Z,950.9
2022-08-03T02:57:04.678Z,950.9
2022-08-03T02:58:06.320Z,950.9
2022-08-03T02:59:07.890Z,951
2022-08-03T03:00:09.506Z,951
2022-08-03T03:01:11.462Z,951
2022-08-03T03:02:15.139Z,950.9
2022-08-03T03:03:20.072Z,951
2022-08-03T03:04:33.549Z,951
2022-08-03T03:05:57.929Z,951
2022-08-03T03:07:04.793Z,951
2022-08-03T03:08:28.173Z,951.1
2022-08-03T03:09:46.520Z,951.1
2022-08-03T03:10:48.065Z,951.1
2022-08-03T03:11:49.662Z,951.1
2022-08-03T03:12:51.191Z,951.1
2022-08-03T03:13:52.817Z,951.1
2022-08-03T03:14:54.352Z,951.1
2022-08-03T03:15:55.961Z,951.1
2022-08-03T03:16:58.421Z,951.1
2022-08-03T03:18:00.184Z,951.1
2022-08-03T03:19:01.710Z,951.1
2022-08-03T03:20:03.294Z,951.1
2022-08-03T03:21:04.835Z,951.1
2022-08-03T03:22:06.562Z,951.2
2022-08-03T03:23:08.328Z,951.1
2022-08-03T03:24:09.942Z,951.2
2022-08-03T03:25:11.474Z,951.2
2022-08-03T03:26:13.010Z,951.2
2022-08-03T03:27:17.249Z,951.2
2022-08-03T03:28:18.903Z,951.2
2022-08-03T03:29:23.332Z,951.3
2022-08-03T03:30:24.912Z,951.3
2022-08-03T03:31:26.801Z,951.3
2022-08-03T03:32:28.451Z,951.2
2022-08-03T03:33:30.079Z,951.3
2022-08-03T03:34:32.326Z,951.3
2022-08-03T03:35:42.494Z,951.3
2022-08-03T03:36:44.027Z,951.2
2022-08-03T03:37:45.654Z,951.3
2022-08-03T03:38:47.342Z,951.3
2022-08-03T03:39:48.966Z,951.3
2022-08-03T03:40:50.619Z,951.3
2022-08-03T03:41:52.177Z,951.3
2022-08-03T03:42:53.763Z,951.3
2022-08-03T03:43:55.446Z,951.3
2022-08-03T03:44:58.841Z,951.3
2022-08-03T03:46:03.770Z,951.3
2022-08-03T03:47:05.706Z,951.3
2022-08-03T03:48:07.250Z,951.3
2022-08-03T03:49:09.172Z,951.3
2022-08-03T03:50:10.952Z,951.3
2022-08-03T03:51:12.576Z,951.3
2022-08-03T03:52:15.010Z,951.3
2022-08-03T03:53:16.898Z,951.3
2022-08-03T03:54:18.577Z,951.3
2022-08-03T03:55:20.128Z,951.4
2022-08-03T03:56:21.656Z,951.4
2022-08-03T03:57:23.197Z,951.4
2022-08-03T03:58:25.256Z,951.4
2022-08-03T03:59:26.900Z,951.4
2022-08-03T04:00:28.740Z,951.4
2022-08-03T04:01:30.478Z,951.4
2022-08-03T04:02:32.240Z,951.3
2022-08-03T04:03:33.821Z,951.3
2022-08-03T04:04:35.514Z,951.4
2022-08-03T04:05:45.923Z,951.3
2022-08-03T04:06:47.632Z,951.3
2022-08-03T04:07:49.273Z,951.4
2022-08-03T04:08:50.965Z,951.4
2022-08-03T04:09:52.546Z,951.4
2022-08-03T04:10:54.214Z,951.4
2022-08-03T04:11:55.853Z,951.4
2022-08-03T04:12:57.381Z,951.4
2022-08-03T04:14:02.516Z,951.4
2022-08-03T04:15:04.155Z,951.4
2022-08-03T04:16:05.717Z,951.4
2022-08-03T04:17:07.405Z,951.4
2022-08-03T04:18:09.047Z,951.4
2022-08-03T04:19:10.739Z,951.4
2022-08-03T04:20:12.284Z,951.3
2022-08-03T04:21:13.908Z,951.3
2022-08-03T04:22:16.316Z,951.3
2022-08-03T04:23:18.609Z,951.3
2022-08-03T04:24:20.312Z,951.3
2022-08-03T04:25:21.904Z,951.4
2022-08-03T04:26:23.495Z,951.3
2022-08-03T04:27:25.141Z,951.3
2022-08-03T04:28:32.305Z,951.3
2022-08-03T04:29:34.069Z,951.3
2022-08-03T04:30:35.704Z,951.3
2022-08-03T04:31:37.362Z,951.3
2022-08-03T04:32:46.149Z,951.3
2022-08-03T04:33:51.349Z,951.3
2022-08-03T04:34:53.048Z,951.3
2022-08-03T04:36:04.036Z,951.4
2022-08-03T04:37:05.717Z,951.4
2022-08-03T04:38:07.257Z,951.4
2022-08-03T04:39:08.799Z,951.4
2022-08-03T04:40:10.482Z,951.4
2022-08-03T04:41:12.127Z,951.4
2022-08-03T04:42:13.671Z,951.4
2022-08-03T04:43:15.406Z,951.4
2022-08-03T04:44:17.047Z,951.4
2022-08-03T04:45:18.715Z,951.5
2022-08-03T04:46:20.374Z,951.5
2022-08-03T04:47:21.947Z,951.5
2022-08-03T04:48:23.545Z,951.5
2022-08-03T04:49:25.649Z,951.5
2022-08-03T04:50:27.655Z,951.6
2022-08-03T04:51:29.174Z,951.6
2022-08-03T04:52:30.931Z,951.6
2022-08-03T04:53:32.465Z,951.5
2022-08-03T04:54:34.020Z,951.6
2022-08-03T04:55:35.683Z,951.6
2022-08-03T04:56:37.263Z,951.5
2022-08-03T04:57:38.910Z,951.6
2022-08-03T04:58:40.472Z,951.5
2022-08-03T04:59:42.207Z,951.6
2022-08-03T05:00:43.912Z,951.6
2022-08-03T05:01:46.046Z,951.6
2022-08-03T05:02:48.015Z,951.6
2022-08-03T05:03:49.561Z,951.6
2022-08-03T05:04:51.106Z,951.6
2022-08-03T05:06:10.088Z,951.7
2022-08-03T05:07:13.274Z,951.6
2022-08-03T05:08:15.341Z,951.7
2022-08-03T05:10:03.498Z,951.7
2022-08-03T05:11:05.469Z,951.7
2022-08-03T05:12:07.103Z,951.7
2022-08-03T05:13:08.762Z,951.8
2022-08-03T05:14:10.263Z,951.7
2022-08-03T05:15:11.810Z,951.8
2022-08-03T05:16:13.578Z,951.8
2022-08-03T05:17:15.123Z,951.8
2022-08-03T05:18:16.874Z,951.8
2022-08-03T05:19:18.539Z,951.8
2022-08-03T05:20:20.161Z,951.8
2022-08-03T05:21:21.826Z,951.8
2022-08-03T05:22:23.467Z,951.8
2022-08-03T05:23:25.000Z,951.8
2022-08-03T05:24:26.619Z,951.9
2022-08-03T05:25:28.172Z,951.9
2022-08-03T05:26:30.065Z,951.9
2022-08-03T05:27:31.741Z,951.9
2022-08-03T05:28:33.331Z,951.9
2022-08-03T05:29:34.866Z,951.9
2022-08-03T05:30:36.459Z,951.9
2022-08-03T05:31:38.073Z,951.9
2022-08-03T05:32:39.677Z,951.9
2022-08-03T05:33:41.368Z,951.9
2022-08-03T05:34:42.953Z,951.9
2022-08-03T05:36:04.674Z,951.9
2022-08-03T05:37:06.418Z,951.9
2022-08-03T05:38:09.551Z,951.9
2022-08-03T05:39:12.169Z,951.9
2022-08-03T05:40:13.813Z,952
2022-08-03T05:41:37.687Z,951.9
2022-08-03T05:42:39.356Z,952
2022-08-03T05:43:40.902Z,951.9
2022-08-03T05:44:42.475Z,952
2022-08-03T05:45:44.236Z,952
2022-08-03T05:46:46.063Z,952
2022-08-03T05:47:47.607Z,952
2022-08-03T05:48:49.186Z,952
2022-08-03T05:49:51.011Z,952
2022-08-03T05:50:52.577Z,952
2022-08-03T05:52:17.923Z,952
2022-08-03T05:53:20.498Z,952
2022-08-03T05:54:57.870Z,952
2022-08-03T05:56:17.058Z,952
2022-08-03T05:57:21.858Z,952.1
2022-08-03T05:58:30.289Z,952
2022-08-03T05:59:39.215Z,952
2022-08-03T06:01:00.052Z,952
2022-08-03T06:02:01.934Z,952
2022-08-03T06:03:03.881Z,952
2022-08-03T06:04:06.033Z,952
2022-08-03T06:05:07.711Z,952
2022-08-03T06:06:09.478Z,952
2022-08-03T06:07:11.179Z,952.1
2022-08-03T06:08:15.878Z,952.1
2022-08-03T06:09:17.665Z,952.1
2022-08-03T06:10:38.747Z,952.1
2022-08-03T06:11:40.670Z,952.1
2022-08-03T06:12:42.258Z,952.1
2022-08-03T06:13:43.842Z,952.1
2022-08-03T06:14:45.655Z,952.1
2022-08-03T06:15:47.474Z,952.1
2022-08-03T06:16:49.130Z,952.1
2022-08-03T06:17:50.765Z,952.1
2022-08-03T06:18:52.421Z,952.1
2022-08-03T06:19:54.126Z,952.1
2022-08-03T06:20:56.425Z,952.1
2022-08-03T06:22:00.022Z,952.1
2022-08-03T06:23:02.709Z,952
2022-08-03T06:24:07.912Z,952
2022-08-03T06:25:14.466Z,952
2022-08-03T06:26:16.098Z,952
2022-08-03T06:27:17.674Z,952
2022-08-03T06:28:54.837Z,952
2022-08-03T06:29:57.929Z,952
2022-08-03T06:30:59.683Z,952
2022-08-03T06:32:01.308Z,952
2022-08-03T06:33:02.956Z,952
2022-08-03T06:34:36.057Z,951.9
2022-08-03T06:35:44.841Z,952
2022-08-03T06:36:46.951Z,952
2022-08-03T06:37:48.529Z,952
2022-08-03T06:38:50.690Z,952
2022-08-03T06:39:52.346Z,952
2022-08-03T06:40:54.443Z,952
2022-08-03T06:41:56.165Z,952
2022-08-03T06:42:57.876Z,952
2022-08-03T06:44:04.877Z,951.9
2022-08-03T06:45:06.549Z,952
2022-08-03T06:46:08.196Z,951.9
2022-08-03T06:47:10.035Z,951.9
2022-08-03T06:48:11.673Z,951.9
2022-08-03T06:49:13.792Z,951.9
2022-08-03T06:50:26.491Z,951.9
2022-08-03T06:52:07.195Z,951.9
2022-08-03T06:53:08.811Z,951.9
2022-08-03T06:54:17.266Z,951.9
2022-08-03T06:55:18.835Z,951.9
2022-08-03T06:56:20.689Z,951.9
2022-08-03T06:57:22.283Z,951.9
2022-08-03T06:58:24.008Z,951.9
2022-08-03T07:00:12.870Z,951.9
2022-08-03T07:01:19.334Z,951.9
2022-08-03T07:02:21.847Z,951.9
2022-08-03T07:03:23.624Z,951.9
2022-08-03T07:04:25.518Z,951.9
2022-08-03T07:05:27.199Z,951.9
2022-08-03T07:06:29.024Z,951.9
2022-08-03T07:07:30.826Z,951.9
2022-08-03T07:08:34.940Z,951.9
2022-08-03T07:09:36.524Z,951.9
2022-08-03T07:10:39.257Z,951.9
2022-08-03T07:11:43.868Z,951.9
2022-08-03T07:13:00.485Z,951.9
2022-08-03T07:14:02.305Z,951.8
2022-08-03T07:15:04.282Z,952
2022-08-03T07:16:05.919Z,951.9
2022-08-03T07:17:12.301Z,951.9
2022-08-03T07:18:14.592Z,951.9
2022-08-03T07:19:16.179Z,951.9
2022-08-03T07:20:17.857Z,951.9
2022-08-03T07:21:19.599Z,951.9
2022-08-03T07:22:21.339Z,951.9
2022-08-03T07:23:23.616Z,951.9
2022-08-03T07:24:28.709Z,951.9
2022-08-03T07:25:30.519Z,951.9
2022-08-03T07:26:32.519Z,951.9
2022-08-03T07:27:34.350Z,951.9
2022-08-03T07:28:35.997Z,951.9
2022-08-03T07:29:37.586Z,951.9
2022-08-03T07:30:39.327Z,952
2022-08-03T07:31:41.034Z,952
2022-08-03T07:32:51.084Z,951.9
2022-08-03T07:33:52.852Z,951.9
2022-08-03T07:35:01.852Z,952
2022-08-03T07:36:10.055Z,951.9
2022-08-03T07:37:11.688Z,951.9
2022-08-03T07:38:13.526Z,951.9
2022-08-03T07:39:18.453Z,951.9
2022-08-03T07:40:20.048Z,951.9
2022-08-03T07:41:21.626Z,951.9
2022-08-03T07:42:23.292Z,952
2022-08-03T07:43:24.966Z,952
2022-08-03T07:44:26.692Z,952
2022-08-03T07:45:28.424Z,952
2022-08-03T07:46:30.020Z,952
2022-08-03T07:47:36.324Z,952
2022-08-03T07:48:38.086Z,952
2022-08-03T07:49:39.948Z,951.9
2022-08-03T07:50:41.769Z,952
2022-08-03T07:51:43.459Z,952
2022-08-03T07:52:45.171Z,952
2022-08-03T07:53:48.548Z,952
2022-08-03T07:54:53.913Z,952
2022-08-03T07:55:55.479Z,952
2022-08-03T07:56:57.095Z,952
2022-08-03T07:57:58.694Z,952
2022-08-03T07:59:01.109Z,952
2022-08-03T08:00:03.378Z,952
2022-08-03T08:01:05.339Z,952
2022-08-03T08:02:07.499Z,952
2022-08-03T08:03:09.393Z,951.9
2022-08-03T08:04:11.008Z,951.9
2022-08-03T08:05:12.891Z,951.9
2022-08-03T08:06:14.511Z,952
2022-08-03T08:07:18.538Z,952
2022-08-03T08:08:22.388Z,952
2022-08-03T08:09:24.067Z,952
2022-08-03T08:10:25.648Z,952
2022-08-03T08:11:27.510Z,952
2022-08-03T08:12:29.354Z,952
2022-08-03T08:13:31.070Z,952
2022-08-03T08:14:32.694Z,952
2022-08-03T08:15:43.904Z,952.1
2022-08-03T08:16:46.866Z,952
2022-08-03T08:17:48.530Z,952
2022-08-03T08:18:50.736Z,952
2022-08-03T08:19:54.238Z,952
2022-08-03T08:20:57.572Z,952.1
2022-08-03T08:22:03.704Z,952
2022-08-03T08:23:46.284Z,952
2022-08-03T08:25:01.648Z,952
2022-08-03T08:26:03.523Z,952
2022-08-03T08:27:05.190Z,952
2022-08-03T08:28:34.016Z,952
2022-08-03T08:29:58.925Z,952
2022-08-03T08:31:11.704Z,952
2022-08-03T08:32:13.409Z,951.9
2022-08-03T08:33:25.769Z,951.9
2022-08-03T08:34:38.764Z,951.9
2022-08-03T08:35:40.451Z,951.9
2022-08-03T08:36:42.016Z,951.9
2022-08-03T08:37:51.707Z,951.9
2022-08-03T08:38:53.271Z,951.9
2022-08-03T08:39:54.832Z,951.9
2022-08-03T08:40:56.430Z,951.9
2022-08-03T08:41:57.985Z,951.9
2022-08-03T08:42:59.671Z,951.9
2022-08-03T08:44:01.589Z,951.9
2022-08-03T08:45:07.636Z,951.9
2022-08-03T08:46:09.391Z,951.9
2022-08-03T08:47:11.546Z,951.9
2022-08-03T08:48:13.142Z,951.9
2022-08-03T08:49:15.057Z,951.9
2022-08-03T08:50:28.726Z,951.9
2022-08-03T08:52:01.869Z,951.9
2022-08-03T08:53:03.608Z,951.9
2022-08-03T08:54:05.562Z,951.9
2022-08-03T08:55:07.239Z,951.9
2022-08-03T08:56:09.151Z,951.8
2022-08-03T08:57:42.608Z,951.8
2022-08-03T08:58:46.527Z,951.8
2022-08-03T08:59:57.024Z,951.9
2022-08-03T09:00:59.562Z,951.8
2022-08-03T09:02:02.841Z,951.9
2022-08-03T09:03:06.042Z,951.9
2022-08-03T09:04:07.776Z,951.8
2022-08-03T09:05:09.350Z,951.9
2022-08-03T09:06:11.033Z,951.8
2022-08-03T09:07:29.692Z,951.8
2022-08-03T09:08:31.944Z,951.8
2022-08-03T09:10:14.026Z,951.8
2022-08-03T09:11:15.707Z,951.8
2022-08-03T09:12:43.134Z,951.8
2022-08-03T09:13:45.027Z,951.8
2022-08-03T09:15:17.666Z,951.8
2022-08-03T09:16:19.487Z,951.8
2022-08-03T09:17:22.081Z,951.7
2022-08-03T09:18:33.360Z,951.7
2022-08-03T09:19:35.021Z,951.8
2022-08-03T09:20:36.620Z,951.8
2022-08-03T09:21:38.326Z,951.7
2022-08-03T09:22:39.899Z,951.7
2022-08-03T09:24:04.614Z,951.7
2022-08-03T09:25:25.452Z,951.7
2022-08-03T09:26:27.171Z,951.8
2022-08-03T09:27:28.730Z,951.7
2022-08-03T09:29:14.271Z,951.8
2022-08-03T09:30:35.442Z,951.7
2022-08-03T09:31:38.067Z,951.7
2022-08-03T09:32:39.790Z,951.7
2022-08-03T09:33:41.448Z,951.7
2022-08-03T09:34:43.079Z,951.7
2022-08-03T09:36:00.408Z,951.7
2022-08-03T09:37:02.187Z,951.7
2022-08-03T09:38:14.642Z,951.7
2022-08-03T09:39:16.515Z,951.7
2022-08-03T09:40:18.236Z,951.7
2022-08-03T09:41:19.982Z,951.7
2022-08-03T09:42:24.497Z,951.7
2022-08-03T09:43:26.753Z,951.7
2022-08-03T09:44:28.866Z,951.6
2022-08-03T09:45:30.434Z,951.7
2022-08-03T09:46:33.768Z,951.7
2022-08-03T09:47:35.450Z,951.7
2022-08-03T09:48:37.720Z,951.7
2022-08-03T09:49:41.675Z,951.7
2022-08-03T09:52:33.409Z,951.7
2022-08-03T09:54:01.006Z,951.7
2022-08-03T09:55:02.891Z,951.7
2022-08-03T09:56:37.484Z,951.7
2022-08-03T09:57:39.312Z,951.6
2022-08-03T09:58:40.862Z,951.6
2022-08-03T09:59:45.420Z,951.6
2022-08-03T10:00:48.110Z,951.6
2022-08-03T10:01:50.046Z,951.6
2022-08-03T10:02:51.631Z,951.6
2022-08-03T10:04:05.698Z,951.6
2022-08-03T10:05:07.405Z,951.6
2022-08-03T10:06:08.975Z,951.6
2022-08-03T10:07:10.754Z,951.6
2022-08-03T10:08:12.389Z,951.5
2022-08-03T10:09:14.037Z,951.5
2022-08-03T10:10:32.610Z,951.5
2022-08-03T10:11:42.731Z,951.4
2022-08-03T10:12:44.360Z,951.4
2022-08-03T10:13:47.882Z,951.5
2022-08-03T10:14:49.516Z,951.4
2022-08-03T10:16:26.253Z,951.4
2022-08-03T10:17:28.022Z,951.4
2022-08-03T10:18:29.787Z,951.5
2022-08-03T10:19:31.381Z,951.4
2022-08-03T10:20:33.161Z,951.4
2022-08-03T10:21:35.089Z,951.5
2022-08-03T10:22:37.007Z,951.4
2022-08-03T10:23:38.885Z,951.4
2022-08-03T10:24:40.708Z,951.4
2022-08-03T10:25:42.451Z,951.4
2022-08-03T10:26:50.613Z,951.4
2022-08-03T10:27:52.235Z,951.4
2022-08-03T10:28:53.939Z,951.4
2022-08-03T10:29:58.891Z,951.4
2022-08-03T10:31:00.619Z,951.4
2022-08-03T10:32:02.197Z,951.3
2022-08-03T10:33:53.010Z,951.3
2022-08-03T10:35:22.355Z,951.3
2022-08-03T10:36:24.069Z,951.3
2022-08-03T10:37:26.491Z,951.3
2022-08-03T10:38:30.814Z,951.3
2022-08-03T10:39:32.482Z,951.3
2022-08-03T10:40:54.633Z,951.3
2022-08-03T10:42:03.418Z,951.3
2022-08-03T10:43:16.059Z,951.3
2022-08-03T10:44:17.768Z,951.2
2022-08-03T10:45:19.869Z,951.2
2022-08-03T10:46:21.510Z,951.2
2022-08-03T10:47:23.180Z,951.2
2022-08-03T10:48:24.855Z,951.2
2022-08-03T10:49:36.163Z,951.2
2022-08-03T10:50:37.982Z,951.3
2022-08-03T10:51:39.601Z,951.2
2022-08-03T10:52:49.985Z,951.3
2022-08-03T10:53:56.022Z,951.2
2022-08-03T10:55:00.541Z,951.2
2022-08-03T10:56:09.384Z,951.2
2022-08-03T10:57:14.951Z,951.3
2022-08-03T10:58:31.170Z,951.2
2022-08-03T10:59:32.878Z,951.3
2022-08-03T11:00:34.808Z,951.3
2022-08-03T11:02:01.404Z,951.2
2022-08-03T11:03:03.061Z,951.2
2022-08-03T11:04:16.844Z,951.2
2022-08-03T11:05:21.316Z,951.2
2022-08-03T11:06:23.047Z,951.1
2022-08-03T11:07:24.696Z,951.2
2022-08-03T11:08:26.318Z,951.2
2022-08-03T11:09:28.187Z,951.2
2022-08-03T11:10:30.139Z,951.1
2022-08-03T11:11:31.833Z,951.1
2022-08-03T11:12:33.489Z,951.1
2022-08-03T11:13:35.380Z,951.2
2022-08-03T11:14:37.117Z,951.1
2022-08-03T11:15:38.806Z,951.1
2022-08-03T11:16:40.372Z,951.1
2022-08-03T11:17:59.462Z,951.1
2022-08-03T11:19:04.077Z,951.1
2022-08-03T11:20:05.762Z,951
2022-08-03T11:21:07.469Z,951
2022-08-03T11:22:09.041Z,951.1
2022-08-03T11:23:10.584Z,951
2022-08-03T11:24:12.134Z,951
2022-08-03T11:25:55.613Z,951
2022-08-03T11:26:57.494Z,951.1
2022-08-03T11:27:59.026Z,951
2022-08-03T11:29:00.566Z,951
2022-08-03T11:30:02.251Z,951
2022-08-03T11:31:04.008Z,951
2022-08-03T11:32:05.642Z,950.9
2022-08-03T11:33:07.354Z,950.9
2022-08-03T11:34:09.045Z,950.9
2022-08-03T11:35:10.734Z,950.9
2022-08-03T11:36:12.306Z,950.9
2022-08-03T11:37:14.008Z,950.9
2022-08-03T11:38:15.633Z,951
2022-08-03T11:39:17.557Z,950.9
2022-08-03T11:40:19.300Z,950.9
2022-08-03T11:41:21.029Z,950.9
2022-08-03T11:42:22.618Z,950.9
2022-08-03T11:43:31.942Z,950.8
2022-08-03T11:44:33.647Z,950.8
2022-08-03T11:45:35.323Z,950.8
2022-08-03T11:46:36.957Z,950.7
2022-08-03T11:47:51.792Z,950.7
2022-08-03T11:48:53.639Z,950.8
2022-08-03T11:49:55.509Z,950.9
2022-08-03T11:50:57.164Z,950.9
2022-08-03T11:51:58.833Z,950.8
2022-08-03T11:53:00.442Z,950.8
2022-08-03T11:54:02.102Z,950.8
2022-08-03T11:55:03.788Z,950.8
2022-08-03T11:56:13.448Z,950.8
2022-08-03T11:57:15.195Z,950.8
2022-08-03T11:59:22.693Z,950.8
2022-08-03T12:00:26.481Z,950.7
2022-08-03T12:01:28.228Z,950.7
2022-08-03T12:02:30.586Z,950.8
2022-08-03T12:03:32.867Z,950.8
2022-08-03T12:04:35.214Z,950.8
2022-08-03T12:05:36.954Z,950.8
2022-08-03T12:06:40.744Z,950.8
2022-08-03T12:08:07.586Z,950.8
2022-08-03T12:09:15.990Z,950.8
2022-08-03T12:10:17.720Z,950.8
2022-08-03T12:11:19.410Z,950.7
2022-08-03T12:12:26.251Z,950.8
2022-08-03T12:14:52.813Z,950.7
2022-08-03T12:15:54.889Z,950.7
2022-08-03T12:16:56.548Z,950.7
2022-08-03T12:17:58.672Z,950.7
2022-08-03T12:19:00.390Z,950.7
2022-08-03T12:20:02.029Z,950.8
2022-08-03T12:21:03.809Z,950.7
2022-08-03T12:22:05.555Z,950.7
2022-08-03T12:23:07.457Z,950.8
2022-08-03T12:24:09.235Z,950.7
2022-08-03T12:25:10.868Z,950.7
2022-08-03T12:26:12.594Z,950.7
2022-08-03T12:27:14.209Z,950.7
2022-08-03T12:28:39.634Z,950.7
2022-08-03T12:29:59.919Z,950.7
2022-08-03T12:31:01.683Z,950.6
2022-08-03T12:32:03.352Z,950.7
2022-08-03T12:33:05.005Z,950.6
2022-08-03T12:34:06.738Z,950.7
2022-08-03T12:35:08.589Z,950.6
2022-08-03T12:36:10.330Z,950.6
2022-08-03T12:37:23.945Z,950.6
2022-08-03T12:38:27.404Z,950.6
2022-08-03T12:39:31.413Z,950.7
2022-08-03T12:40:33.223Z,950.7
2022-08-03T12:41:34.957Z,950.6
2022-08-03T12:42:36.927Z,950.6
2022-08-03T12:43:40.225Z,950.6
2022-08-03T12:44:42.036Z,950.5
2022-08-03T12:45:43.661Z,950.5
2022-08-03T12:46:48.521Z,950.5
2022-08-03T12:47:50.126Z,950.5
2022-08-03T12:48:51.816Z,950.6
2022-08-03T12:49:53.512Z,950.5
2022-08-03T12:50:55.214Z,950.6
2022-08-03T12:51:56.780Z,950.6
2022-08-03T12:52:58.912Z,950.6
2022-08-03T12:54:00.485Z,950.6
2022-08-03T12:55:02.198Z,950.6
2022-08-03T12:56:06.902Z,950.6
2022-08-03T12:57:08.540Z,950.5
2022-08-03T12:58:10.200Z,950.5
2022-08-03T12:59:16.844Z,950.5
2022-08-03T13:00:32.310Z,950.5
2022-08-03T13:01:34.919Z,950.5
2022-08-03T13:02:39.034Z,950.4
2022-08-03T13:03:53.322Z,950.5
2022-08-03T13:04:55.736Z,950.4
2022-08-03T13:05:57.344Z,950.4
2022-08-03T13:07:03.791Z,950.4
2022-08-03T13:08:05.435Z,950.5
2022-08-03T13:09:07.588Z,950.5
2022-08-03T13:10:09.587Z,950.5
2022-08-03T13:11:11.525Z,950.5
2022-08-03T13:12:13.420Z,950.5
2022-08-03T13:13:15.231Z,950.5
2022-08-03T13:14:20.843Z,950.5
2022-08-03T13:15:22.480Z,950.5
2022-08-03T13:16:24.158Z,950.5
2022-08-03T13:17:25.910Z,950.6
2022-08-03T13:18:27.595Z,950.5
2022-08-03T13:19:29.862Z,950.5
2022-08-03T13:20:31.434Z,950.6
2022-08-03T13:21:33.048Z,950.6
2022-08-03T13:22:34.707Z,950.6
2022-08-03T13:23:36.256Z,950.6
2022-08-03T13:24:37.888Z,950.7
2022-08-03T13:25:56.394Z,950.7
2022-08-03T13:26:58.601Z,950.7
2022-08-03T13:28:08.145Z,950.7
2022-08-03T13:29:15.913Z,950.8
2022-08-03T13:30:30.986Z,950.8
2022-08-03T13:31:32.629Z,950.7
2022-08-03T13:32:34.324Z,950.7
2022-08-03T13:33:36.188Z,950.7
2022-08-03T13:34:40.764Z,950.7
2022-08-03T13:35:42.882Z,950.7
2022-08-03T13:37:19.983Z,950.7
2022-08-03T13:38:28.698Z,950.7
2022-08-03T13:39:33.197Z,950.7
2022-08-03T13:41:05.557Z,950.7
2022-08-03T13:42:07.646Z,950.7
2022-08-03T13:43:09.233Z,950.7
2022-08-03T13:44:31.289Z,950.6
2022-08-03T13:45:33.062Z,950.6
2022-08-03T13:46:34.807Z,950.6
2022-08-03T13:47:36.721Z,950.6
2022-08-03T13:48:38.410Z,950.5
2022-08-03T13:49:40.021Z,950.6
2022-08-03T13:50:43.663Z,950.5
2022-08-03T13:51:45.386Z,950.6
2022-08-03T13:52:47.027Z,950.5
2022-08-03T13:53:48.788Z,950.6
2022-08-03T13:54:50.488Z,950.6
2022-08-03T13:55:52.061Z,950.6
2022-08-03T13:58:07.212Z,950.6
2022-08-03T13:59:09.288Z,950.5
2022-08-03T14:00:11.006Z,950.5
2022-08-03T14:01:13.015Z,950.5
2022-08-03T14:02:15.256Z,950.5
2022-08-03T14:03:17.169Z,950.5
2022-08-03T14:04:22.905Z,950.5
2022-08-03T14:05:24.465Z,950.5
2022-08-03T14:06:26.075Z,950.5
2022-08-03T14:07:27.730Z,950.5
2022-08-03T14:08:29.486Z,950.5
2022-08-03T14:09:31.043Z,950.5
2022-08-03T14:10:32.822Z,950.5